KMSS

Massena International-Richards Field Airport

Massena, New York, USA
METAR KMSS 101453Z AUTO 31006KT 10SM CLR M08/M13 A3027 RMK AO2 SLP258 T10781128 53012
Observed Flight Rules
Dec-10 @ 14:53 UTC (47 minutes ago) Visual Flight Rules
Wind Visibility Clouds
310° at 6 knots 10 miles
  • Clear skies
Temperatures Readings
Current -8°C / 18°F
Dewpoint -13°C / 9°F
Humidity 68%
Altimeter 30.27" Hg
Pressure 1025.8 hPa
Elevation 66
METAR KMSS 101453Z AUTO 31006KT 10SM CLR M08/M13 A3027 RMK AO2 SLP258 T10781128 53012
Observed Flight Rules
Dec-10 @ 14:53 UTC
(47 minutes ago)
VFR
Wind Visibility
310° at 6 knots 10 miles
Clouds
  • Clear skies
Temperature Dewpoint
-8°C / 18°F -13°C / 9°F
Humidity Altimeter Pressure
68% 30.27" Hg 1025.8 hPa